Roy, New Mexico
Current Conditions -  °F | °C
As of 1:53 PM on Friday 24 Oct 2014 (Local Time) from KLVS Reporting Station
Clear Clear  
Wind Chill: 77°   Ceiling: Unl
Heat Index: 77°   Visibility: 10mi
Dew Point: 27°   Wind: 8mph
Humidity: 16%   Direction: 200°SSW
Pressure: 30.27"   Gusts: NA
Location:  35.94°N, 104.2°W
Report Text: KLVS 241953Z AUTO 20007KT 150V250 10SM CLR 25/M03 A3027 RMK AO2 SLP156 T02501028
Loading
Personal Weather Stations






























Interactive Weather Map
Tropical Storm Tracking
New forecast layout! Learn more

10-Day Weather Forecast

Advertisements
Track Severe Weather on mobile